createdAt,value
2023-03-18T00:00:46.885Z,1017.35
2023-03-18T00:01:46.888Z,1017.42
2023-03-18T00:02:46.952Z,1017.42
2023-03-18T00:03:46.924Z,1017.45
2023-03-18T00:04:46.873Z,1017.33
2023-03-18T00:05:46.874Z,1017.39
2023-03-18T00:06:46.875Z,1017.34
2023-03-18T00:07:46.897Z,1017.34
2023-03-18T00:08:46.870Z,1017.35
2023-03-18T00:09:46.865Z,1017.29
2023-03-18T00:10:46.863Z,1017.24
2023-03-18T00:11:46.880Z,1017.43
2023-03-18T00:12:46.883Z,1017.35
2023-03-18T00:13:46.880Z,1017.39
2023-03-18T00:14:46.872Z,1017.41
2023-03-18T00:15:46.909Z,1017.42
2023-03-18T00:16:46.883Z,1017.48
2023-03-18T00:17:46.876Z,1017.42
2023-03-18T00:18:46.864Z,1017.4
2023-03-18T00:19:46.862Z,1017.34
2023-03-18T00:20:46.877Z,1017.36
2023-03-18T00:21:46.877Z,1017.32
2023-03-18T00:22:46.961Z,1017.41
2023-03-18T00:23:46.878Z,1017.42
2023-03-18T00:24:46.869Z,1017.54
2023-03-18T00:25:46.888Z,1017.41
2023-03-18T00:26:46.885Z,1017.27
2023-03-18T00:27:46.886Z,1017.31
2023-03-18T00:28:46.881Z,1017.53
2023-03-18T00:29:46.873Z,1017.39
2023-03-18T00:30:46.873Z,1017.34
2023-03-18T00:31:46.875Z,1017.41
2023-03-18T00:32:46.968Z,1017.45
2023-03-18T00:33:46.871Z,1017.4
2023-03-18T00:34:46.878Z,1017.39
2023-03-18T00:35:46.930Z,1017.35
2023-03-18T00:36:46.874Z,1017.36
2023-03-18T00:37:46.878Z,1017.36
2023-03-18T00:38:46.875Z,1017.26
2023-03-18T00:39:46.870Z,1017.27
2023-03-18T00:40:46.877Z,1017.35
2023-03-18T00:41:46.873Z,1017.48
2023-03-18T00:42:46.904Z,1017.42
2023-03-18T00:43:47.076Z,1017.5
2023-03-18T00:44:46.883Z,1017.41
2023-03-18T00:45:46.863Z,1017.42
2023-03-18T00:46:46.922Z,1017.34
2023-03-18T00:47:46.890Z,1017.31
2023-03-18T00:48:46.886Z,1017.41
2023-03-18T00:49:46.870Z,1017.52
2023-03-18T00:50:46.882Z,1017.4
2023-03-18T00:51:46.882Z,1017.56
2023-03-18T00:52:46.901Z,1017.44
2023-03-18T00:53:46.863Z,1017.24
2023-03-18T00:54:46.875Z,1017.38
2023-03-18T00:55:46.870Z,1017.3
2023-03-18T00:56:46.894Z,1017.33
2023-03-18T00:57:46.878Z,1017.33
2023-03-18T00:58:46.882Z,1017.24
2023-03-18T00:59:46.876Z,1017.34
2023-03-18T01:00:46.960Z,1017.25
2023-03-18T01:01:46.900Z,1017.26
2023-03-18T01:02:46.890Z,1017.2
2023-03-18T01:03:46.884Z,1017.2
2023-03-18T01:04:46.879Z,1017.23
2023-03-18T01:05:46.868Z,1017.16
2023-03-18T01:06:46.877Z,1017.3
2023-03-18T01:07:46.880Z,1017.3
2023-03-18T01:08:46.880Z,1017.24
2023-03-18T01:09:46.882Z,1017.19
2023-03-18T01:10:46.878Z,1017.22
2023-03-18T01:11:46.888Z,1017.2
2023-03-18T01:12:46.879Z,1017.06
2023-03-18T01:13:46.875Z,1017.09
2023-03-18T01:14:46.889Z,1017.13
2023-03-18T01:15:46.878Z,1017.09
2023-03-18T01:16:47.058Z,1017.14
2023-03-18T01:17:46.919Z,1017.16
2023-03-18T01:18:46.889Z,1017.15
2023-03-18T01:19:46.868Z,1017.1
2023-03-18T01:20:46.873Z,1017.12
2023-03-18T01:21:46.868Z,1017.07
2023-03-18T01:22:46.894Z,1017.08
2023-03-18T01:23:46.869Z,1017.13
2023-03-18T01:24:46.882Z,1017.09
2023-03-18T01:25:46.869Z,1017.1
2023-03-18T01:26:46.887Z,1016.92
2023-03-18T01:27:46.892Z,1016.99
2023-03-18T01:28:46.872Z,1016.95
2023-03-18T01:29:46.875Z,1017.08
2023-03-18T01:30:46.867Z,1017.1
2023-03-18T01:31:46.912Z,1017.01
2023-03-18T01:32:46.931Z,1017.16
2023-03-18T01:33:46.882Z,1017.07
2023-03-18T01:34:46.883Z,1017.06
2023-03-18T01:35:46.953Z,1017.11
2023-03-18T01:36:46.875Z,1017.18
2023-03-18T01:37:46.913Z,1017.14
2023-03-18T01:38:46.883Z,1017.09
2023-03-18T01:39:46.863Z,1017.09
2023-03-18T01:40:46.869Z,1017.13
2023-03-18T01:41:46.881Z,1016.99
2023-03-18T01:42:46.880Z,1017.01
2023-03-18T01:43:46.869Z,1017.05
2023-03-18T01:44:46.881Z,1017.16
2023-03-18T01:45:47.055Z,1017.11
2023-03-18T01:46:46.872Z,1017.08
2023-03-18T01:47:46.894Z,1017.38
2023-03-18T01:48:46.874Z,1016.78
2023-03-18T01:49:46.867Z,1016.89
2023-03-18T01:50:46.862Z,1017.47
2023-03-18T01:51:46.873Z,1017.02
2023-03-18T01:52:46.877Z,1017.19
2023-03-18T01:53:46.865Z,1016.92
2023-03-18T01:54:46.885Z,1016.97
2023-03-18T01:55:46.877Z,1016.99
2023-03-18T01:56:46.869Z,1016.94
2023-03-18T01:57:46.882Z,1016.85
2023-03-18T01:58:46.866Z,1016.92
2023-03-18T01:59:46.863Z,1017.03
2023-03-18T02:00:46.902Z,1017.13
2023-03-18T02:01:46.864Z,1017.08
2023-03-18T02:02:46.891Z,1017.09
2023-03-18T02:03:46.867Z,1017.14
2023-03-18T02:04:46.866Z,1017.25
2023-03-18T02:05:46.872Z,1016.98
2023-03-18T02:06:46.880Z,1017.09
2023-03-18T02:07:46.886Z,1017.09
2023-03-18T02:08:46.880Z,1017.01
2023-03-18T02:09:46.905Z,1017.26
2023-03-18T02:10:46.874Z,1016.98
2023-03-18T02:11:46.872Z,1016.92
2023-03-18T02:12:46.893Z,1016.98
2023-03-18T02:13:46.896Z,1017.07
2023-03-18T02:14:46.884Z,1016.95
2023-03-18T02:15:46.885Z,1017.13
2023-03-18T02:16:46.905Z,1017.08
2023-03-18T02:17:46.916Z,1016.94
2023-03-18T02:18:46.882Z,1017.08
2023-03-18T02:19:46.866Z,1017.09
2023-03-18T02:20:46.870Z,1016.98
2023-03-18T02:21:46.868Z,1017.15
2023-03-18T02:22:46.913Z,1017.24
2023-03-18T02:23:46.870Z,1017.07
2023-03-18T02:24:46.869Z,1017.08
2023-03-18T02:25:46.878Z,1017.24
2023-03-18T02:26:46.880Z,1017.09
2023-03-18T02:27:46.895Z,1017.2
2023-03-18T02:28:46.893Z,1017.19
2023-03-18T02:29:46.876Z,1017.25
2023-03-18T02:30:46.900Z,1017.25
2023-03-18T02:31:46.884Z,1017.23
2023-03-18T02:32:47.033Z,1017.4
2023-03-18T02:33:47.914Z,1017.1
2023-03-18T02:34:46.867Z,1017.16
2023-03-18T02:35:46.878Z,1017.11
2023-03-18T02:36:46.878Z,1017.26
2023-03-18T02:37:46.878Z,1017.43
2023-03-18T02:38:46.869Z,1017.13
2023-03-18T02:39:46.876Z,1017.34
2023-03-18T02:40:46.876Z,1017.31
2023-03-18T02:41:46.873Z,1017.13
2023-03-18T02:42:46.910Z,1017.29
2023-03-18T02:43:46.888Z,1017.25
2023-03-18T02:44:46.884Z,1017.22
2023-03-18T02:45:46.888Z,1017.42
2023-03-18T02:46:46.912Z,1017.12
2023-03-18T02:47:46.888Z,1017.67
2023-03-18T02:48:46.875Z,1017.16
2023-03-18T02:49:46.873Z,1017.17
2023-03-18T02:50:46.882Z,1017.25
2023-03-18T02:51:46.880Z,1017.22
2023-03-18T02:52:46.877Z,1017.21
2023-03-18T02:53:46.870Z,1017.17
2023-03-18T02:54:46.880Z,1017.23
2023-03-18T02:55:46.873Z,1017.41
2023-03-18T02:56:46.875Z,1017.46
2023-03-18T02:57:46.893Z,1017.33
2023-03-18T02:58:46.876Z,1017.31
2023-03-18T02:59:46.897Z,1017.25
2023-03-18T03:00:46.884Z,1017.26
2023-03-18T03:01:46.932Z,1017.35
2023-03-18T03:02:46.978Z,1017.43
2023-03-18T03:03:46.879Z,1017.36
2023-03-18T03:04:46.882Z,1017.77
2023-03-18T03:05:46.883Z,1017.32
2023-03-18T03:06:46.883Z,1017.38
2023-03-18T03:07:46.892Z,1017.38
2023-03-18T03:08:46.879Z,1017.41
2023-03-18T03:09:46.888Z,1017.7
2023-03-18T03:10:46.883Z,1017.33
2023-03-18T03:11:46.880Z,1017.71
2023-03-18T03:12:46.893Z,1017.57
2023-03-18T03:13:46.886Z,1017.63
2023-03-18T03:14:46.917Z,1017.76
2023-03-18T03:15:46.942Z,1017.53
2023-03-18T03:16:46.884Z,1017.55
2023-03-18T03:17:46.901Z,1017.63
2023-03-18T03:18:46.878Z,1017.66
2023-03-18T03:19:46.885Z,1017.54
2023-03-18T03:20:46.882Z,1017.84
2023-03-18T03:21:46.889Z,1017.5
2023-03-18T03:22:46.888Z,1017.75
2023-03-18T03:23:46.870Z,1017.54
2023-03-18T03:24:46.891Z,1017.55
2023-03-18T03:25:46.878Z,1017.52
2023-03-18T03:26:46.883Z,1017.54
2023-03-18T03:27:46.892Z,1017.76
2023-03-18T03:28:46.880Z,1017.62
2023-03-18T03:29:46.883Z,1017.76
2023-03-18T03:30:46.959Z,1017.63
2023-03-18T03:31:46.878Z,1017.73
2023-03-18T03:32:46.924Z,1017.71
2023-03-18T03:33:46.880Z,1017.64
2023-03-18T03:34:46.886Z,1017.56
2023-03-18T03:35:46.896Z,1017.63
2023-03-18T03:36:46.879Z,1017.81
2023-03-18T03:37:46.896Z,1017.75
2023-03-18T03:38:46.891Z,1017.59
2023-03-18T03:39:46.885Z,1017.65
2023-03-18T03:40:46.894Z,1017.69
2023-03-18T03:41:46.872Z,1017.76
2023-03-18T03:42:46.893Z,1017.71
2023-03-18T03:43:46.875Z,1017.67
2023-03-18T03:44:46.887Z,1017.66
2023-03-18T03:45:46.876Z,1017.67
2023-03-18T03:46:46.965Z,1017.64
2023-03-18T03:47:46.898Z,1017.62
2023-03-18T03:48:46.873Z,1017.7
2023-03-18T03:49:46.883Z,1017.72
2023-03-18T03:50:46.880Z,1017.64
2023-03-18T03:51:46.879Z,1017.56
2023-03-18T03:52:46.896Z,1017.63
2023-03-18T03:53:46.873Z,1017.7
2023-03-18T03:54:46.874Z,1017.8
2023-03-18T03:55:46.886Z,1017.68
2023-03-18T03:56:46.864Z,1017.8
2023-03-18T03:57:46.885Z,1017.68
2023-03-18T03:58:46.878Z,1017.65
2023-03-18T03:59:46.885Z,1017.8
2023-03-18T04:00:46.875Z,1017.64
2023-03-18T04:01:46.868Z,1017.9
2023-03-18T04:02:46.946Z,1017.69
2023-03-18T04:03:46.907Z,1017.62
2023-03-18T04:04:46.887Z,1017.72
2023-03-18T04:05:46.884Z,1017.69
2023-03-18T04:06:46.877Z,1017.83
2023-03-18T04:07:46.893Z,1017.83
2023-03-18T04:08:46.881Z,1017.78
2023-03-18T04:09:46.878Z,1017.88
2023-03-18T04:10:46.877Z,1018.19
2023-03-18T04:11:46.879Z,1017.92
2023-03-18T04:12:46.897Z,1017.95
2023-03-18T04:13:46.867Z,1018.01
2023-03-18T04:14:46.876Z,1017.75
2023-03-18T04:15:46.924Z,1017.91
2023-03-18T04:16:46.884Z,1017.83
2023-03-18T04:17:46.897Z,1017.94
2023-03-18T04:18:46.879Z,1017.73
2023-03-18T04:19:46.888Z,1017.86
2023-03-18T04:20:46.878Z,1018
2023-03-18T04:21:46.880Z,1017.79
2023-03-18T04:22:46.889Z,1017.79
2023-03-18T04:23:46.867Z,1017.79
2023-03-18T04:24:46.903Z,1017.69
2023-03-18T04:25:46.871Z,1017.81
2023-03-18T04:26:46.952Z,1017.79
2023-03-18T04:27:46.888Z,1017.85
2023-03-18T04:28:46.897Z,1017.86
2023-03-18T04:29:46.867Z,1018.06
2023-03-18T04:30:46.877Z,1017.78
2023-03-18T04:31:46.974Z,1017.72
2023-03-18T04:32:46.935Z,1017.76
2023-03-18T04:33:46.875Z,1017.84
2023-03-18T04:34:46.872Z,1017.79
2023-03-18T04:35:46.962Z,1017.83
2023-03-18T04:36:46.879Z,1017.93
2023-03-18T04:37:46.885Z,1017.87
2023-03-18T04:38:46.882Z,1017.81
2023-03-18T04:39:46.877Z,1018.3
2023-03-18T04:40:46.880Z,1017.92
2023-03-18T04:41:46.876Z,1017.92
2023-03-18T04:42:47.051Z,1017.8
2023-03-18T04:43:46.874Z,1017.8
2023-03-18T04:44:46.897Z,1017.83
2023-03-18T04:45:46.878Z,1017.99
2023-03-18T04:46:46.894Z,1017.82
2023-03-18T04:47:46.892Z,1017.8
2023-03-18T04:48:46.886Z,1017.91
2023-03-18T04:49:46.881Z,1017.86
2023-03-18T04:50:46.885Z,1017.66
2023-03-18T04:51:46.883Z,1017.86
2023-03-18T04:52:46.884Z,1017.94
2023-03-18T04:53:46.879Z,1017.83
2023-03-18T04:54:46.882Z,1017.9
2023-03-18T04:55:46.875Z,1018.02
2023-03-18T04:56:46.884Z,1017.83
2023-03-18T04:57:46.903Z,1017.86
2023-03-18T04:58:46.881Z,1017.84
2023-03-18T04:59:46.879Z,1017.95
2023-03-18T05:00:46.951Z,1017.92
2023-03-18T05:01:46.884Z,1017.79
2023-03-18T05:02:46.903Z,1017.87
2023-03-18T05:03:46.937Z,1017.91
2023-03-18T05:04:46.876Z,1017.85
2023-03-18T05:05:46.870Z,1017.83
2023-03-18T05:06:46.878Z,1017.8
2023-03-18T05:07:46.898Z,1017.8
2023-03-18T05:08:46.858Z,1017.86
2023-03-18T05:09:46.872Z,1017.95
2023-03-18T05:10:46.881Z,1017.87
2023-03-18T05:11:46.907Z,1017.89
2023-03-18T05:12:46.886Z,1018.04
2023-03-18T05:13:46.872Z,1017.93
2023-03-18T05:14:46.879Z,1017.84
2023-03-18T05:15:46.874Z,1017.81
2023-03-18T05:16:46.942Z,1017.8
2023-03-18T05:17:46.885Z,1017.82
2023-03-18T05:18:46.891Z,1017.93
2023-03-18T05:19:46.879Z,1017.9
2023-03-18T05:20:46.874Z,1017.92
2023-03-18T05:21:46.872Z,1017.99
2023-03-18T05:22:46.908Z,1017.92
2023-03-18T05:23:46.878Z,1017.94
2023-03-18T05:24:46.888Z,1017.81
2023-03-18T05:25:46.885Z,1017.96
2023-03-18T05:26:46.951Z,1017.84
2023-03-18T05:27:46.879Z,1017.89
2023-03-18T05:28:46.882Z,1017.92
2023-03-18T05:29:46.881Z,1018.03
2023-03-18T05:30:46.880Z,1018.07
2023-03-18T05:31:46.934Z,1017.83
2023-03-18T05:32:46.927Z,1017.86
2023-03-18T05:33:46.900Z,1017.9
2023-03-18T05:34:46.873Z,1017.92
2023-03-18T05:35:46.889Z,1018.11
2023-03-18T05:36:46.883Z,1018.12
2023-03-18T05:37:46.901Z,1017.89
2023-03-18T05:38:46.883Z,1017.95
2023-03-18T05:39:46.903Z,1018.06
2023-03-18T05:40:46.872Z,1018.01
2023-03-18T05:41:46.875Z,1018.07
2023-03-18T05:42:55.704Z,1017.81
2023-03-18T05:43:46.868Z,1018.02
2023-03-18T05:44:46.893Z,1018.04
2023-03-18T05:45:46.984Z,1018
2023-03-18T05:46:46.868Z,1018.11
2023-03-18T05:47:46.895Z,1017.98
2023-03-18T05:48:46.877Z,1017.91
2023-03-18T05:49:46.876Z,1018
2023-03-18T05:50:46.890Z,1017.98
2023-03-18T05:51:46.879Z,1017.96
2023-03-18T05:52:46.889Z,1017.91
2023-03-18T05:53:46.871Z,1018.04
2023-03-18T05:54:46.876Z,1017.93
2023-03-18T05:55:46.876Z,1017.94
2023-03-18T05:56:46.880Z,1017.96
2023-03-18T05:57:46.910Z,1018.12
2023-03-18T05:58:46.880Z,1017.94
2023-03-18T05:59:46.870Z,1017.91
2023-03-18T06:00:46.879Z,1017.99
2023-03-18T06:01:46.887Z,1017.95
2023-03-18T06:02:46.884Z,1018.1
2023-03-18T06:03:46.990Z,1017.95
2023-03-18T06:04:46.879Z,1018.02
2023-03-18T06:05:46.875Z,1018.06
2023-03-18T06:06:46.887Z,1018.02
2023-03-18T06:07:46.891Z,1018.02
2023-03-18T06:08:46.878Z,1018.22
2023-03-18T06:09:46.877Z,1018.34
2023-03-18T06:10:46.874Z,1018.33
2023-03-18T06:11:46.874Z,1017.93
2023-03-18T06:12:46.907Z,1017.98
2023-03-18T06:13:46.878Z,1018.23
2023-03-18T06:14:46.880Z,1018.23
2023-03-18T06:15:47.680Z,1018.22
2023-03-18T06:16:46.930Z,1018.23
2023-03-18T06:17:46.899Z,1018.23
2023-03-18T06:18:46.876Z,1018.29
2023-03-18T06:19:46.879Z,1018.27
2023-03-18T06:20:46.872Z,1018.24
2023-03-18T06:21:46.872Z,1018.35
2023-03-18T06:22:46.893Z,1018.31
2023-03-18T06:23:46.898Z,1018.45
2023-03-18T06:24:48.387Z,1018.29
2023-03-18T06:25:46.883Z,1018.36
2023-03-18T06:26:46.880Z,1018.23
2023-03-18T06:27:46.891Z,1018.4
2023-03-18T06:28:46.886Z,1018.37
2023-03-18T06:29:46.881Z,1018.27
2023-03-18T06:30:46.996Z,1018.22
2023-03-18T06:31:46.880Z,1018.22
2023-03-18T06:32:46.890Z,1018.32
2023-03-18T06:33:46.876Z,1018.31
2023-03-18T06:34:46.875Z,1018.23
2023-03-18T06:35:46.907Z,1018.32
2023-03-18T06:36:46.881Z,1018.18
2023-03-18T06:37:46.908Z,1018.25
2023-03-18T06:38:46.873Z,1018.22
2023-03-18T06:39:46.877Z,1018.22
2023-03-18T06:40:46.869Z,1018.29
2023-03-18T06:41:46.874Z,1018.28
2023-03-18T06:42:46.910Z,1018.15
2023-03-18T06:43:46.879Z,1018.23
2023-03-18T06:44:46.889Z,1018.26
2023-03-18T06:45:46.879Z,1018.15
2023-03-18T06:46:46.878Z,1018.2
2023-03-18T06:47:46.906Z,1018.22
2023-03-18T06:48:46.893Z,1018.3
2023-03-18T06:49:46.899Z,1018.19
2023-03-18T06:50:46.879Z,1018.35
2023-03-18T06:51:46.887Z,1018.32
2023-03-18T06:52:46.891Z,1018.3
2023-03-18T06:53:46.878Z,1018.29
2023-03-18T06:54:46.890Z,1018.36
2023-03-18T06:55:46.882Z,1018.37
2023-03-18T06:56:46.898Z,1018.27
2023-03-18T06:57:46.895Z,1018.29
2023-03-18T06:58:46.891Z,1018.23
2023-03-18T06:59:46.888Z,1018.29
2023-03-18T07:00:46.951Z,1018.29
2023-03-18T07:01:46.925Z,1018.32
2023-03-18T07:02:46.889Z,1018.35
2023-03-18T07:03:46.873Z,1018.34
2023-03-18T07:04:46.960Z,1018.37
2023-03-18T07:05:46.883Z,1018.36
2023-03-18T07:06:46.873Z,1018.31
2023-03-18T07:07:46.959Z,1018.31
2023-03-18T07:08:46.865Z,1018.55
2023-03-18T07:09:46.884Z,1018.42
2023-03-18T07:10:46.872Z,1018.43
2023-03-18T07:11:46.873Z,1018.55
2023-03-18T07:12:46.884Z,1018.6
2023-03-18T07:13:46.876Z,1018.53
2023-03-18T07:14:46.872Z,1018.58
2023-03-18T07:15:46.964Z,1018.55
2023-03-18T07:16:46.885Z,1018.54
2023-03-18T07:17:46.888Z,1018.53
2023-03-18T07:18:46.887Z,1018.52
2023-03-18T07:19:46.873Z,1018.51
2023-03-18T07:20:46.877Z,1018.55
2023-03-18T07:21:46.877Z,1018.49
2023-03-18T07:22:46.910Z,1018.54
2023-03-18T07:23:46.884Z,1018.53
2023-03-18T07:24:46.883Z,1018.54
2023-03-18T07:25:46.976Z,1018.47
2023-03-18T07:26:46.862Z,1018.57
2023-03-18T07:27:46.885Z,1018.59
2023-03-18T07:28:46.872Z,1018.54
2023-03-18T07:29:46.881Z,1018.51
2023-03-18T07:30:46.924Z,1018.53
2023-03-18T07:31:46.877Z,1018.52
2023-03-18T07:32:46.930Z,1018.48
2023-03-18T07:33:46.939Z,1018.52
2023-03-18T07:34:46.874Z,1018.59
2023-03-18T07:35:46.954Z,1018.6
2023-03-18T07:36:46.956Z,1018.46
2023-03-18T07:37:46.886Z,1018.6
2023-03-18T07:38:46.874Z,1018.58
2023-03-18T07:39:46.878Z,1018.74
2023-03-18T07:40:46.885Z,1018.49
2023-03-18T07:41:46.875Z,1018.28
2023-03-18T07:42:47.046Z,1018.37
2023-03-18T07:43:46.883Z,1018.48
2023-03-18T07:44:46.871Z,1018.51
2023-03-18T07:45:46.898Z,1018.51
2023-03-18T07:46:46.982Z,1018.57
2023-03-18T07:47:47.358Z,1018.53
2023-03-18T07:48:46.875Z,1018.53
2023-03-18T07:49:46.876Z,1018.58
2023-03-18T07:50:46.880Z,1018.55
2023-03-18T07:51:46.876Z,1018.62
2023-03-18T07:52:46.904Z,1018.56
2023-03-18T07:53:46.881Z,1018.58
2023-03-18T07:54:46.873Z,1018.54
2023-03-18T07:55:46.864Z,1018.47
2023-03-18T07:56:46.947Z,1018.65
2023-03-18T07:57:46.911Z,1018.57
2023-03-18T07:58:46.884Z,1018.58
2023-03-18T07:59:46.872Z,1018.64
2023-03-18T08:00:46.883Z,1018.63
2023-03-18T08:01:46.901Z,1018.53
2023-03-18T08:02:46.889Z,1018.6
2023-03-18T08:03:46.952Z,1018.66
2023-03-18T08:04:46.984Z,1018.6
2023-03-18T08:05:46.876Z,1018.62
2023-03-18T08:06:46.879Z,1018.62
2023-03-18T08:07:46.908Z,1018.62
2023-03-18T08:08:46.870Z,1018.6
2023-03-18T08:09:46.903Z,1018.64
2023-03-18T08:10:46.878Z,1018.63
2023-03-18T08:11:47.044Z,1018.55
2023-03-18T08:12:53.109Z,1018.68
2023-03-18T08:13:46.873Z,1018.68
2023-03-18T08:14:46.881Z,1018.64
2023-03-18T08:15:46.877Z,1018.6
2023-03-18T08:16:46.875Z,1018.68
2023-03-18T08:17:46.888Z,1018.65
2023-03-18T08:18:46.919Z,1018.58
2023-03-18T08:19:46.880Z,1018.58
2023-03-18T08:20:46.877Z,1019.16
2023-03-18T08:21:46.884Z,1018.65
2023-03-18T08:22:46.900Z,1018.58
2023-03-18T08:23:46.873Z,1018.71
2023-03-18T08:24:46.877Z,1018.75
2023-03-18T08:25:46.875Z,1018.68
2023-03-18T08:26:46.872Z,1018.68
2023-03-18T08:27:46.889Z,1018.84
2023-03-18T08:28:46.876Z,1018.74
2023-03-18T08:29:46.890Z,1018.74
2023-03-18T08:30:46.923Z,1018.7
2023-03-18T08:31:47.016Z,1018.75
2023-03-18T08:32:46.894Z,1018.73
2023-03-18T08:33:46.878Z,1018.77
2023-03-18T08:34:46.891Z,1018.7
2023-03-18T08:35:46.909Z,1018.66
2023-03-18T08:36:46.885Z,1018.64
2023-03-18T08:37:46.894Z,1018.64
2023-03-18T08:38:46.874Z,1018.65
2023-03-18T08:39:46.880Z,1018.6
2023-03-18T08:40:46.873Z,1018.69
2023-03-18T08:41:46.877Z,1018.75
2023-03-18T08:42:46.904Z,1018.7
2023-03-18T08:43:46.885Z,1018.65
2023-03-18T08:44:46.884Z,1018.62
2023-03-18T08:45:46.912Z,1018.63
2023-03-18T08:46:46.873Z,1018.66
2023-03-18T08:47:46.888Z,1018.7
2023-03-18T08:48:46.879Z,1018.65
2023-03-18T08:49:46.890Z,1018.68
2023-03-18T08:50:46.880Z,1018.63
2023-03-18T08:51:46.919Z,1018.73
2023-03-18T08:52:46.894Z,1018.64
2023-03-18T08:53:46.881Z,1018.64
2023-03-18T08:54:46.894Z,1018.62
2023-03-18T08:55:46.888Z,1018.64
2023-03-18T08:56:46.870Z,1018.61
2023-03-18T08:57:46.886Z,1018.72
2023-03-18T08:58:46.879Z,1018.66
2023-03-18T08:59:46.884Z,1018.68
2023-03-18T09:00:47.025Z,1018.61
2023-03-18T09:01:46.886Z,1018.61
2023-03-18T09:02:46.899Z,1018.64
2023-03-18T09:03:46.968Z,1018.61
2023-03-18T09:04:46.889Z,1018.71
2023-03-18T09:05:46.893Z,1018.77
2023-03-18T09:06:46.884Z,1018.69
2023-03-18T09:07:46.894Z,1018.69
2023-03-18T09:08:46.875Z,1018.84
2023-03-18T09:09:46.907Z,1018.71
2023-03-18T09:10:46.876Z,1018.72
2023-03-18T09:11:46.885Z,1018.77
2023-03-18T09:12:46.898Z,1018.73
2023-03-18T09:13:46.877Z,1018.68
2023-03-18T09:14:46.893Z,1018.69
2023-03-18T09:15:46.865Z,1018.77
2023-03-18T09:16:46.956Z,1018.71
2023-03-18T09:17:56.572Z,1018.63
2023-03-18T09:18:48.797Z,1018.61
2023-03-18T09:19:46.873Z,1018.64
2023-03-18T09:20:46.870Z,1018.59
2023-03-18T09:21:46.875Z,1018.68
2023-03-18T09:22:46.899Z,1018.65
2023-03-18T09:23:46.875Z,1018.74
2023-03-18T09:24:46.865Z,1018.71
2023-03-18T09:25:46.864Z,1018.7
2023-03-18T09:26:46.871Z,1018.59
2023-03-18T09:27:46.882Z,1018.62
2023-03-18T09:28:46.874Z,1018.64
2023-03-18T09:29:46.875Z,1018.59
2023-03-18T09:30:46.960Z,1018.61
2023-03-18T09:31:46.868Z,1018.52
2023-03-18T09:32:46.978Z,1018.42
2023-03-18T09:33:46.866Z,1018.45
2023-03-18T09:34:46.873Z,1018.4
2023-03-18T09:35:46.887Z,1018.52
2023-03-18T09:36:46.862Z,1018.4
2023-03-18T09:37:46.872Z,1018.42
2023-03-18T09:38:46.870Z,1018.32
2023-03-18T09:39:46.877Z,1018.33
2023-03-18T09:40:46.867Z,1018.45
2023-03-18T09:41:46.872Z,1018.29
2023-03-18T09:42:47.040Z,1018.26
2023-03-18T09:43:46.885Z,1018.37
2023-03-18T09:44:46.933Z,1018.35
2023-03-18T09:45:46.928Z,1018.38
2023-03-18T09:46:47.081Z,1018.26
2023-03-18T09:47:46.889Z,1018.31
2023-03-18T09:48:46.910Z,1018.43
2023-03-18T09:49:46.862Z,1018.47
2023-03-18T09:50:46.868Z,1018.29
2023-03-18T09:51:46.916Z,1018.33
2023-03-18T09:52:46.885Z,1018.31
2023-03-18T09:53:46.871Z,1018.28
2023-03-18T09:54:46.859Z,1018.41
2023-03-18T09:55:46.884Z,1018.55
2023-03-18T09:56:46.863Z,1018.52
2023-03-18T09:57:46.878Z,1018.45
2023-03-18T09:58:46.866Z,1018.36
2023-03-18T09:59:46.866Z,1018.53
2023-03-18T10:00:46.869Z,1018.65
2023-03-18T10:01:46.979Z,1018.37
2023-03-18T10:02:46.894Z,1018.38
2023-03-18T10:03:47.028Z,1018.29
2023-03-18T10:04:46.865Z,1018.29
2023-03-18T10:05:46.868Z,1018.38
2023-03-18T10:06:46.864Z,1018.25
2023-03-18T10:07:46.875Z,1018.25
2023-03-18T10:08:46.865Z,1018.59
2023-03-18T10:09:46.871Z,1018.3
2023-03-18T10:10:46.863Z,1018.34
2023-03-18T10:11:46.880Z,1018.32
2023-03-18T10:12:46.885Z,1018.37
2023-03-18T10:13:46.862Z,1018.38
2023-03-18T10:14:46.861Z,1018.46
2023-03-18T10:15:46.936Z,1018.38
2023-03-18T10:16:46.880Z,1018.5
2023-03-18T10:17:46.897Z,1018.46
2023-03-18T10:18:46.865Z,1018.48
2023-03-18T10:19:46.871Z,1018.37
2023-03-18T10:20:46.863Z,1018.33
2023-03-18T10:21:46.872Z,1018.34
2023-03-18T10:22:46.900Z,1018.36
2023-03-18T10:23:46.874Z,1018.38
2023-03-18T10:24:46.860Z,1018.42
2023-03-18T10:25:46.889Z,1018.42
2023-03-18T10:26:46.860Z,1018.45
2023-03-18T10:27:46.881Z,1018.43
2023-03-18T10:28:46.866Z,1018.46
2023-03-18T10:29:46.872Z,1018.43
2023-03-18T10:30:46.894Z,1018.32
2023-03-18T10:31:46.875Z,1018.3
2023-03-18T10:32:50.351Z,1018.37
2023-03-18T10:33:46.872Z,1018.3
2023-03-18T10:34:46.868Z,1018.27
2023-03-18T10:35:46.917Z,1018.36
2023-03-18T10:36:46.867Z,1018.31
2023-03-18T10:37:46.897Z,1018.4
2023-03-18T10:38:46.886Z,1018.34
2023-03-18T10:39:46.922Z,1018.31
2023-03-18T10:40:46.881Z,1018.2
2023-03-18T10:41:46.879Z,1018.2
2023-03-18T10:42:46.900Z,1018.49
2023-03-18T10:43:46.882Z,1018.32
2023-03-18T10:44:46.877Z,1018.33
2023-03-18T10:45:46.957Z,1018.3
2023-03-18T10:46:46.963Z,1018.26
2023-03-18T10:47:46.879Z,1018.25
2023-03-18T10:48:46.895Z,1018.32
2023-03-18T10:49:46.873Z,1018.34
2023-03-18T10:50:46.876Z,1018.37
2023-03-18T10:51:46.873Z,1018.4
2023-03-18T10:52:46.883Z,1018.46
2023-03-18T10:53:46.893Z,1018.45
2023-03-18T10:54:46.870Z,1018.43
2023-03-18T10:55:46.880Z,1018.52
2023-03-18T10:56:46.883Z,1018.45
2023-03-18T10:57:46.881Z,1018.43
2023-03-18T10:58:46.868Z,1018.47
2023-03-18T10:59:46.867Z,1018.58
2023-03-18T11:00:46.893Z,1018.5
2023-03-18T11:01:46.996Z,1018.43
2023-03-18T11:02:46.914Z,1018.63
2023-03-18T11:03:46.872Z,1018.56
2023-03-18T11:04:46.865Z,1018.6
2023-03-18T11:05:47.016Z,1018.48
2023-03-18T11:06:46.880Z,1018.43
2023-03-18T11:07:46.883Z,1018.43
2023-03-18T11:08:46.874Z,1018.43
2023-03-18T11:09:46.870Z,1018.48
2023-03-18T11:10:46.881Z,1018.69
2023-03-18T11:11:46.874Z,1018.74
2023-03-18T11:12:46.899Z,1018.61
2023-03-18T11:13:46.881Z,1018.47
2023-03-18T11:14:46.878Z,1018.81
2023-03-18T11:15:47.030Z,1018.52
2023-03-18T11:16:46.862Z,1018.57
2023-03-18T11:17:46.880Z,1018.54
2023-03-18T11:18:46.877Z,1018.53
2023-03-18T11:19:46.868Z,1018.51
2023-03-18T11:20:46.869Z,1018.7
2023-03-18T11:21:47.978Z,1018.6
2023-03-18T11:22:46.881Z,1018.52
2023-03-18T11:23:46.881Z,1018.51
2023-03-18T11:24:46.888Z,1018.66
2023-03-18T11:25:46.881Z,1018.59
2023-03-18T11:26:47.452Z,1018.56
2023-03-18T11:27:46.913Z,1018.45
2023-03-18T11:28:46.872Z,1018.65
2023-03-18T11:29:46.983Z,1018.6
2023-03-18T11:30:46.871Z,1018.49
2023-03-18T11:31:47.310Z,1018.49
2023-03-18T11:32:46.933Z,1018.54
2023-03-18T11:33:46.861Z,1018.62
2023-03-18T11:34:46.993Z,1018.53
2023-03-18T11:35:46.897Z,1018.6
2023-03-18T11:36:46.872Z,1018.55
2023-03-18T11:37:46.908Z,1018.65
2023-03-18T11:38:47.154Z,1018.6
2023-03-18T11:39:46.866Z,1018.54
2023-03-18T11:40:47.297Z,1018.77
2023-03-18T11:41:46.868Z,1018.53
2023-03-18T11:42:46.920Z,1018.5
2023-03-18T11:43:46.865Z,1018.46
2023-03-18T11:44:46.873Z,1018.41
2023-03-18T11:45:47.494Z,1018.41
2023-03-18T11:46:46.951Z,1018.47
2023-03-18T11:47:46.883Z,1018.48
2023-03-18T11:48:46.866Z,1018.41
2023-03-18T11:49:46.871Z,1018.47
2023-03-18T11:50:46.864Z,1018.42
2023-03-18T11:51:46.864Z,1018.48
2023-03-18T11:52:46.882Z,1018.38
2023-03-18T11:53:46.871Z,1018.4
2023-03-18T11:54:46.863Z,1018.45
2023-03-18T11:55:46.865Z,1018.42
2023-03-18T11:56:47.201Z,1018.48
2023-03-18T11:57:46.879Z,1018.4
2023-03-18T11:58:46.867Z,1018.49
2023-03-18T11:59:46.882Z,1018.41
2023-03-18T12:00:46.869Z,1018.43
2023-03-18T12:01:46.894Z,1018.42
2023-03-18T12:02:46.879Z,1018.46
2023-03-18T12:03:46.866Z,1018.45
2023-03-18T12:04:46.903Z,1018.38
2023-03-18T12:05:46.874Z,1018.36
2023-03-18T12:06:46.866Z,1018.3
2023-03-18T12:07:46.882Z,1018.46
2023-03-18T12:08:46.863Z,1018.46